sensor_id;sensor_type;location;lat;lon;timestamp;pressure;altitude;pressure_sealevel;temperature;humidity
8705;BME280;4389;41.932;25.904;2023-09-07T00:01:30;-16636.50;;;21.36;97.92
8705;BME280;4389;41.932;25.904;2023-09-07T00:03:57;-16638.63;;;21.44;96.66
8705;BME280;4389;41.932;25.904;2023-09-07T00:06:24;-16638.63;;;21.44;96.86
8705;BME280;4389;41.932;25.904;2023-09-07T00:08:51;-16639.53;;;21.48;96.58
8705;BME280;4389;41.932;25.904;2023-09-07T00:11:19;-16638.88;;;21.45;96.59
8705;BME280;4389;41.932;25.904;2023-09-07T00:13:46;-16638.63;;;21.44;96.06
8705;BME280;4389;41.932;25.904;2023-09-07T00:16:13;-16636.25;;;21.35;96.08
8705;BME280;4389;41.932;25.904;2023-09-07T00:18:40;-16637.16;;;21.39;95.98
8705;BME280;4389;41.932;25.904;2023-09-07T00:21:07;-16641.13;;;21.54;94.76
8705;BME280;4389;41.932;25.904;2023-09-07T00:23:34;-16638.63;;;21.44;94.20
8705;BME280;4389;41.932;25.904;2023-09-07T00:26:01;-16641.25;;;21.54;94.08
8705;BME280;4389;41.932;25.904;2023-09-07T00:28:29;-16640.47;;;21.51;92.96
8705;BME280;4389;41.932;25.904;2023-09-07T00:30:56;-16639.81;;;21.49;92.68
8705;BME280;4389;41.932;25.904;2023-09-07T00:33:23;-16641.53;;;21.55;93.11
8705;BME280;4389;41.932;25.904;2023-09-07T00:35:50;-16637.81;;;21.41;93.00
8705;BME280;4389;41.932;25.904;2023-09-07T00:38:17;-16638.88;;;21.45;92.77
8705;BME280;4389;41.932;25.904;2023-09-07T00:40:44;-16637.56;;;21.40;92.73
8705;BME280;4389;41.932;25.904;2023-09-07T00:43:11;-16636.25;;;21.35;93.17
8705;BME280;4389;41.932;25.904;2023-09-07T00:45:40;-16637.03;;;21.38;93.40
8705;BME280;4389;41.932;25.904;2023-09-07T00:48:07;-16638.09;;;21.42;92.66
8705;BME280;4389;41.932;25.904;2023-09-07T00:50:34;-16637.56;;;21.40;92.15
8705;BME280;4389;41.932;25.904;2023-09-07T00:53:01;-16635.84;;;21.34;92.49
8705;BME280;4389;41.932;25.904;2023-09-07T00:55:33;-16635.72;;;21.33;92.38
8705;BME280;4389;41.932;25.904;2023-09-07T00:58:00;-16635.19;;;21.31;92.28
8705;BME280;4389;41.932;25.904;2023-09-07T01:00:28;-16634.38;;;21.28;92.56
8705;BME280;4389;41.932;25.904;2023-09-07T01:02:57;-16631.75;;;21.18;92.71
8705;BME280;4389;41.932;25.904;2023-09-07T01:05:29;-16632.53;;;21.21;93.08
8705;BME280;4389;41.932;25.904;2023-09-07T01:08:04;-16628.97;;;21.08;93.61
8705;BME280;4389;41.932;25.904;2023-09-07T01:10:33;-16628.31;;;21.05;93.85
8705;BME280;4389;41.932;25.904;2023-09-07T01:13:00;-16626.06;;;20.97;93.82
8705;BME280;4389;41.932;25.904;2023-09-07T01:15:26;-16624.59;;;20.91;94.09
8705;BME280;4389;41.932;25.904;2023-09-07T01:17:54;-16623.00;;;20.85;94.53
8705;BME280;4389;41.932;25.904;2023-09-07T01:20:24;-16621.16;;;20.78;94.92
8705;BME280;4389;41.932;25.904;2023-09-07T01:22:54;-16619.72;;;20.73;94.60
8705;BME280;4389;41.932;25.904;2023-09-07T01:25:21;-16621.16;;;20.78;94.74
8705;BME280;4389;41.932;25.904;2023-09-07T01:27:49;-16621.28;;;20.79;94.51
8705;BME280;4389;41.932;25.904;2023-09-07T01:30:17;-16623.00;;;20.85;94.63
8705;BME280;4389;41.932;25.904;2023-09-07T01:32:44;-16621.69;;;20.80;94.47
8705;BME280;4389;41.932;25.904;2023-09-07T01:35:14;-16615.59;;;20.57;95.58
8705;BME280;4389;41.932;25.904;2023-09-07T01:37:42;-16615.88;;;20.58;95.93
8705;BME280;4389;41.932;25.904;2023-09-07T01:40:10;-16613.50;;;20.49;95.86
8705;BME280;4389;41.932;25.904;2023-09-07T01:42:37;-16613.63;;;20.50;96.22
8705;BME280;4389;41.932;25.904;2023-09-07T01:45:05;-16613.75;;;20.50;96.49
8705;BME280;4389;41.932;25.904;2023-09-07T01:47:32;-16610.84;;;20.39;96.54
8705;BME280;4389;41.932;25.904;2023-09-07T01:49:59;-16608.06;;;20.29;97.23
8705;BME280;4389;41.932;25.904;2023-09-07T01:52:25;-16606.88;;;20.24;96.98
8705;BME280;4389;41.932;25.904;2023-09-07T01:54:52;-16605.69;;;20.20;97.51
8705;BME280;4389;41.932;25.904;2023-09-07T01:57:20;-16605.81;;;20.20;97.19
8705;BME280;4389;41.932;25.904;2023-09-07T01:59:47;-16605.56;;;20.19;97.07
8705;BME280;4389;41.932;25.904;2023-09-07T02:02:14;-16606.22;;;20.22;96.70
8705;BME280;4389;41.932;25.904;2023-09-07T02:04:41;-16605.56;;;20.19;96.87
8705;BME280;4389;41.932;25.904;2023-09-07T02:07:11;-16606.09;;;20.21;96.60
8705;BME280;4389;41.932;25.904;2023-09-07T02:09:38;-16607.81;;;20.28;96.70
8705;BME280;4389;41.932;25.904;2023-09-07T02:12:05;-16609.25;;;20.33;95.96
8705;BME280;4389;41.932;25.904;2023-09-07T02:14:34;-16610.59;;;20.38;95.55
8705;BME280;4389;41.932;25.904;2023-09-07T02:17:00;-16611.25;;;20.41;95.79
8705;BME280;4389;41.932;25.904;2023-09-07T02:19:28;-16612.69;;;20.46;95.44
8705;BME280;4389;41.932;25.904;2023-09-07T02:21:54;-16612.44;;;20.45;95.55
8705;BME280;4389;41.932;25.904;2023-09-07T02:24:21;-16609.78;;;20.35;95.55
8705;BME280;4389;41.932;25.904;2023-09-07T02:26:48;-16606.09;;;20.21;95.58
8705;BME280;4389;41.932;25.904;2023-09-07T02:29:15;-16608.19;;;20.29;95.76
8705;BME280;4389;41.932;25.904;2023-09-07T02:31:44;-16602.91;;;20.09;96.00
8705;BME280;4389;41.932;25.904;2023-09-07T02:34:10;-16605.56;;;20.19;96.44
8705;BME280;4389;41.932;25.904;2023-09-07T02:36:37;-16605.03;;;20.17;96.38
8705;BME280;4389;41.932;25.904;2023-09-07T02:39:04;-16603.44;;;20.11;97.11
8705;BME280;4389;41.932;25.904;2023-09-07T02:41:34;-16602.66;;;20.08;97.66
8705;BME280;4389;41.932;25.904;2023-09-07T02:44:01;-16598.94;;;19.94;98.23
8705;BME280;4389;41.932;25.904;2023-09-07T02:46:28;-16595.75;;;19.82;98.68
8705;BME280;4389;41.932;25.904;2023-09-07T02:48:56;-16596.28;;;19.84;98.90
8705;BME280;4389;41.932;25.904;2023-09-07T02:51:24;-16599.88;;;19.98;98.52
8705;BME280;4389;41.932;25.904;2023-09-07T02:53:51;-16601.31;;;20.03;97.83
8705;BME280;4389;41.932;25.904;2023-09-07T02:56:18;-16594.69;;;19.78;97.87
8705;BME280;4389;41.932;25.904;2023-09-07T02:58:45;-16592.44;;;19.70;98.97
8705;BME280;4389;41.932;25.904;2023-09-07T03:01:11;-16593.13;;;19.72;99.14
8705;BME280;4389;41.932;25.904;2023-09-07T03:03:39;-16594.84;;;19.79;99.11
8705;BME280;4389;41.932;25.904;2023-09-07T03:06:10;-16594.97;;;19.79;98.82
8705;BME280;4389;41.932;25.904;2023-09-07T03:08:38;-16596.81;;;19.86;98.74
8705;BME280;4389;41.932;25.904;2023-09-07T03:11:05;-16600.91;;;20.02;97.84
8705;BME280;4389;41.932;25.904;2023-09-07T03:13:33;-16600.38;;;20.00;97.78
8705;BME280;4389;41.932;25.904;2023-09-07T03:16:03;-16601.84;;;20.05;97.92
8705;BME280;4389;41.932;25.904;2023-09-07T03:18:30;-16597.88;;;19.90;98.44
8705;BME280;4389;41.932;25.904;2023-09-07T03:20:59;-16597.47;;;19.89;98.77
8705;BME280;4389;41.932;25.904;2023-09-07T03:23:28;-16593.91;;;19.75;99.04
8705;BME280;4389;41.932;25.904;2023-09-07T03:25:56;-16594.44;;;19.77;99.37
8705;BME280;4389;41.932;25.904;2023-09-07T03:28:23;-16592.59;;;19.70;99.69
8705;BME280;4389;41.932;25.904;2023-09-07T03:30:50;-16589.41;;;19.58;100.00
8705;BME280;4389;41.932;25.904;2023-09-07T03:33:17;-16585.16;;;19.42;100.00
8705;BME280;4389;41.932;25.904;2023-09-07T03:35:44;-16585.44;;;19.43;100.00
8705;BME280;4389;41.932;25.904;2023-09-07T03:38:11;-16582.00;;;19.30;100.00
8705;BME280;4389;41.932;25.904;2023-09-07T03:40:40;-16582.13;;;19.31;100.00
8705;BME280;4389;41.932;25.904;2023-09-07T03:43:06;-16580.94;;;19.26;100.00
8705;BME280;4389;41.932;25.904;2023-09-07T03:45:33;-16579.09;;;19.19;100.00
8705;BME280;4389;41.932;25.904;2023-09-07T03:48:00;-16580.94;;;19.26;100.00
8705;BME280;4389;41.932;25.904;2023-09-07T03:50:27;-16581.59;;;19.29;100.00
8705;BME280;4389;41.932;25.904;2023-09-07T03:52:54;-16583.59;;;19.36;100.00
8705;BME280;4389;41.932;25.904;2023-09-07T03:55:21;-16584.13;;;19.38;100.00
8705;BME280;4389;41.932;25.904;2023-09-07T03:57:49;-16585.69;;;19.44;100.00
8705;BME280;4389;41.932;25.904;2023-09-07T04:00:17;-16584.38;;;19.39;100.00
8705;BME280;4389;41.932;25.904;2023-09-07T04:02:44;-16584.91;;;19.41;100.00
8705;BME280;4389;41.932;25.904;2023-09-07T04:05:11;-16587.69;;;19.52;100.00
8705;BME280;4389;41.932;25.904;2023-09-07T04:07:38;-16588.88;;;19.56;100.00
8705;BME280;4389;41.932;25.904;2023-09-07T04:10:05;-16586.50;;;19.47;100.00
8705;BME280;4389;41.932;25.904;2023-09-07T04:12:32;-16589.41;;;19.58;100.00
8705;BME280;4389;41.932;25.904;2023-09-07T04:15:03;-16593.38;;;19.73;100.00
8705;BME280;4389;41.932;25.904;2023-09-07T04:17:30;-16596.28;;;19.84;100.00
8705;BME280;4389;41.932;25.904;2023-09-07T04:20:06;-16596.69;;;19.86;100.00
8705;BME280;4389;41.932;25.904;2023-09-07T04:22:33;-16599.47;;;19.96;100.00
8705;BME280;4389;41.932;25.904;2023-09-07T04:25:00;-16604.50;;;20.15;100.00
8705;BME280;4389;41.932;25.904;2023-09-07T04:27:27;-16608.47;;;20.30;99.17
8705;BME280;4389;41.932;25.904;2023-09-07T04:29:53;-16612.16;;;20.44;98.15
8705;BME280;4389;41.932;25.904;2023-09-07T04:32:21;-16613.09;;;20.48;97.42
8705;BME280;4389;41.932;25.904;2023-09-07T04:34:53;-16614.03;;;20.51;96.66
8705;BME280;4389;41.932;25.904;2023-09-07T04:37:20;-16618.25;;;20.67;96.41
8705;BME280;4389;41.932;25.904;2023-09-07T04:39:48;-16616.94;;;20.62;95.12
8705;BME280;4389;41.932;25.904;2023-09-07T04:42:14;-16624.59;;;20.91;94.16
8705;BME280;4389;41.932;25.904;2023-09-07T04:44:41;-16626.59;;;20.99;93.39
8705;BME280;4389;41.932;25.904;2023-09-07T04:47:08;-16632.28;;;21.20;93.25
8705;BME280;4389;41.932;25.904;2023-09-07T04:49:36;-16639.28;;;21.47;91.50
8705;BME280;4389;41.932;25.904;2023-09-07T04:52:03;-16641.78;;;21.56;90.44
8705;BME280;4389;41.932;25.904;2023-09-07T04:54:30;-16642.31;;;21.58;89.62
8705;BME280;4389;41.932;25.904;2023-09-07T04:56:57;-16641.66;;;21.56;88.00
8705;BME280;4389;41.932;25.904;2023-09-07T04:59:24;-16644.16;;;21.65;86.91
8705;BME280;4389;41.932;25.904;2023-09-07T05:01:51;-16641.53;;;21.55;85.15
8705;BME280;4389;41.932;25.904;2023-09-07T05:04:18;-16646.03;;;21.72;84.57
8705;BME280;4389;41.932;25.904;2023-09-07T05:06:46;-16651.69;;;21.94;83.75
8705;BME280;4389;41.932;25.904;2023-09-07T05:09:13;-16650.25;;;21.88;83.50
8705;BME280;4389;41.932;25.904;2023-09-07T05:11:40;-16643.63;;;21.63;83.33
8705;BME280;4389;41.932;25.904;2023-09-07T05:14:06;-16640.47;;;21.51;82.51
8705;BME280;4389;41.932;25.904;2023-09-07T05:16:33;-16638.75;;;21.45;82.26
8705;BME280;4389;41.932;25.904;2023-09-07T05:21:27;-16647.88;;;21.79;81.63
8705;BME280;4389;41.932;25.904;2023-09-07T05:23:55;-16652.50;;;21.97;79.61
8705;BME280;4389;41.932;25.904;2023-09-07T05:26:22;-16653.56;;;22.01;78.40
8705;BME280;4389;41.932;25.904;2023-09-07T05:28:49;-16653.56;;;22.01;78.21
8705;BME280;4389;41.932;25.904;2023-09-07T05:31:16;-16655.81;;;22.09;77.31
8705;BME280;4389;41.932;25.904;2023-09-07T05:33:43;-16662.28;;;22.34;76.26
8705;BME280;4389;41.932;25.904;2023-09-07T05:36:10;-16667.97;;;22.55;75.30
8705;BME280;4389;41.932;25.904;2023-09-07T05:38:37;-16667.69;;;22.54;74.59
8705;BME280;4389;41.932;25.904;2023-09-07T05:41:05;-16671.38;;;22.68;74.94
8705;BME280;4389;41.932;25.904;2023-09-07T05:43:32;-16675.09;;;22.82;72.59
8705;BME280;4389;41.932;25.904;2023-09-07T05:45:59;-16677.19;;;22.90;72.77
8705;BME280;4389;41.932;25.904;2023-09-07T05:48:26;-16678.66;;;22.96;70.57
8705;BME280;4389;41.932;25.904;2023-09-07T05:50:52;-16672.97;;;22.74;69.43
8705;BME280;4389;41.932;25.904;2023-09-07T05:53:19;-16675.09;;;22.82;70.66
8705;BME280;4389;41.932;25.904;2023-09-07T05:55:46;-16674.31;;;22.79;70.83
8705;BME280;4389;41.932;25.904;2023-09-07T05:58:14;-16667.97;;;22.55;70.35
8705;BME280;4389;41.932;25.904;2023-09-07T06:00:41;-16662.81;;;22.36;71.55
8705;BME280;4389;41.932;25.904;2023-09-07T06:03:09;-16669.53;;;22.61;71.81
8705;BME280;4389;41.932;25.904;2023-09-07T06:05:36;-16675.75;;;22.85;70.71
8705;BME280;4389;41.932;25.904;2023-09-07T06:08:05;-16676.28;;;22.87;71.11
8705;BME280;4389;41.932;25.904;2023-09-07T06:10:33;-16682.22;;;23.09;71.20
8705;BME280;4389;41.932;25.904;2023-09-07T06:13:00;-16677.06;;;22.90;71.49
8705;BME280;4389;41.932;25.904;2023-09-07T06:15:29;-16671.66;;;22.69;73.65
8705;BME280;4389;41.932;25.904;2023-09-07T06:17:56;-16672.97;;;22.74;72.33
8705;BME280;4389;41.932;25.904;2023-09-07T06:20:23;-16672.19;;;22.71;73.63
8705;BME280;4389;41.932;25.904;2023-09-07T06:22:49;-16669.00;;;22.59;73.29
8705;BME280;4389;41.932;25.904;2023-09-07T06:25:16;-16669.81;;;22.62;72.84
8705;BME280;4389;41.932;25.904;2023-09-07T06:27:43;-16667.81;;;22.55;73.34
8705;BME280;4389;41.932;25.904;2023-09-07T06:30:11;-16674.31;;;22.79;71.71
8705;BME280;4389;41.932;25.904;2023-09-07T06:32:39;-16669.81;;;22.62;72.48
8705;BME280;4389;41.932;25.904;2023-09-07T06:35:07;-16677.47;;;22.91;72.28
8705;BME280;4389;41.932;25.904;2023-09-07T06:37:34;-16684.34;;;23.17;70.82
8705;BME280;4389;41.932;25.904;2023-09-07T06:40:02;-16692.25;;;23.47;69.93
8705;BME280;4389;41.932;25.904;2023-09-07T06:42:29;-16693.72;;;23.53;69.06
8705;BME280;4389;41.932;25.904;2023-09-07T06:44:57;-16693.56;;;23.52;67.95
8705;BME280;4389;41.932;25.904;2023-09-07T06:47:23;-16694.91;;;23.57;68.25
8705;BME280;4389;41.932;25.904;2023-09-07T06:49:52;-16700.19;;;23.77;67.41
8705;BME280;4389;41.932;25.904;2023-09-07T06:52:19;-16707.97;;;24.07;67.14
8705;BME280;4389;41.932;25.904;2023-09-07T06:54:46;-16716.28;;;24.38;65.25
8705;BME280;4389;41.932;25.904;2023-09-07T06:57:13;-16723.66;;;24.66;63.88
8705;BME280;4389;41.932;25.904;2023-09-07T06:59:40;-16732.75;;;25.00;61.95
8705;BME280;4389;41.932;25.904;2023-09-07T07:02:06;-16726.97;;;24.78;62.00
8705;BME280;4389;41.932;25.904;2023-09-07T07:04:34;-16737.38;;;25.18;59.87
8705;BME280;4389;41.932;25.904;2023-09-07T07:07:03;-16745.03;;;25.47;59.61
8705;BME280;4389;41.932;25.904;2023-09-07T07:09:31;-16752.41;;;25.75;58.00
8705;BME280;4389;41.932;25.904;2023-09-07T07:11:59;-16755.84;;;25.88;56.37
8705;BME280;4389;41.932;25.904;2023-09-07T07:14:26;-16755.84;;;25.88;56.79
8705;BME280;4389;41.932;25.904;2023-09-07T07:16:53;-16750.19;;;25.66;56.08
8705;BME280;4389;41.932;25.904;2023-09-07T07:19:20;-16746.09;;;25.51;56.78
8705;BME280;4389;41.932;25.904;2023-09-07T07:21:48;-16744.91;;;25.46;56.88
8705;BME280;4389;41.932;25.904;2023-09-07T07:24:16;-16748.59;;;25.60;57.08
8705;BME280;4389;41.932;25.904;2023-09-07T07:26:43;-16750.84;;;25.69;55.73
8705;BME280;4389;41.932;25.904;2023-09-07T07:29:10;-16756.50;;;25.90;54.31
8705;BME280;4389;41.932;25.904;2023-09-07T07:31:37;-16764.53;;;26.21;53.92
8705;BME280;4389;41.932;25.904;2023-09-07T07:34:05;-16757.69;;;25.95;54.54
8705;BME280;4389;41.932;25.904;2023-09-07T07:36:31;-16752.69;;;25.76;53.56
8705;BME280;4389;41.932;25.904;2023-09-07T07:38:58;-16760.19;;;26.04;53.69
8705;BME280;4389;41.932;25.904;2023-09-07T07:41:26;-16761.91;;;26.11;53.22
8705;BME280;4389;41.932;25.904;2023-09-07T07:43:53;-16762.16;;;26.12;53.17
8705;BME280;4389;41.932;25.904;2023-09-07T07:46:20;-16759.28;;;26.01;52.97
8705;BME280;4389;41.932;25.904;2023-09-07T07:48:47;-16762.97;;;26.15;52.56
8705;BME280;4389;41.932;25.904;2023-09-07T07:51:14;-16765.59;;;26.25;52.56
8705;BME280;4389;41.932;25.904;2023-09-07T07:53:40;-16778.78;;;26.75;51.84
8705;BME280;4389;41.932;25.904;2023-09-07T07:56:14;-16782.97;;;26.91;51.11
8705;BME280;4389;41.932;25.904;2023-09-07T07:58:43;-16785.34;;;27.00;51.63
8705;BME280;4389;41.932;25.904;2023-09-07T08:01:14;-16784.56;;;26.97;53.54
8705;BME280;4389;41.932;25.904;2023-09-07T08:03:42;-16786.53;;;27.04;54.57
8705;BME280;4389;41.932;25.904;2023-09-07T08:06:08;-16782.19;;;26.88;53.86
8705;BME280;4389;41.932;25.904;2023-09-07T08:08:36;-16777.47;;;26.70;53.23
8705;BME280;4389;41.932;25.904;2023-09-07T08:11:02;-16780.34;;;26.81;52.18
8705;BME280;4389;41.932;25.904;2023-09-07T08:13:32;-16781.41;;;26.85;51.51
8705;BME280;4389;41.932;25.904;2023-09-07T08:16:01;-16785.09;;;26.99;49.38
8705;BME280;4389;41.932;25.904;2023-09-07T08:18:28;-16782.97;;;26.91;49.19
8705;BME280;4389;41.932;25.904;2023-09-07T08:20:56;-16783.78;;;26.94;47.94
8705;BME280;4389;41.932;25.904;2023-09-07T08:23:23;-16781.16;;;26.84;48.08
8705;BME280;4389;41.932;25.904;2023-09-07T08:25:51;-16784.16;;;26.95;48.69
8705;BME280;4389;41.932;25.904;2023-09-07T08:28:18;-16790.63;;;27.20;48.56
8705;BME280;4389;41.932;25.904;2023-09-07T08:30:48;-16788.78;;;27.13;47.07
8705;BME280;4389;41.932;25.904;2023-09-07T08:33:16;-16787.72;;;27.09;46.86
8705;BME280;4389;41.932;25.904;2023-09-07T08:35:43;-16790.75;;;27.20;48.76
8705;BME280;4389;41.932;25.904;2023-09-07T08:38:10;-16793.38;;;27.30;46.88
8705;BME280;4389;41.932;25.904;2023-09-07T08:40:38;-16794.06;;;27.33;47.81
8705;BME280;4389;41.932;25.904;2023-09-07T08:43:08;-16791.69;;;27.24;48.45
8705;BME280;4389;41.932;25.904;2023-09-07T08:45:45;-16792.22;;;27.26;46.74
8705;BME280;4389;41.932;25.904;2023-09-07T08:48:16;-16796.69;;;27.43;46.29
8705;BME280;4389;41.932;25.904;2023-09-07T08:50:46;-16801.81;;;27.62;46.78
8705;BME280;4389;41.932;25.904;2023-09-07T08:53:18;-16805.63;;;27.77;45.55
8705;BME280;4389;41.932;25.904;2023-09-07T08:55:45;-16805.22;;;27.75;46.38
8705;BME280;4389;41.932;25.904;2023-09-07T08:58:12;-16800.38;;;27.57;45.42
8705;BME280;4389;41.932;25.904;2023-09-07T09:00:41;-16800.50;;;27.57;44.56
8705;BME280;4389;41.932;25.904;2023-09-07T09:03:09;-16803.53;;;27.69;44.65
8705;BME280;4389;41.932;25.904;2023-09-07T09:05:38;-16803.78;;;27.70;45.05
8705;BME280;4389;41.932;25.904;2023-09-07T09:08:06;-16810.38;;;27.95;44.23
8705;BME280;4389;41.932;25.904;2023-09-07T09:10:32;-16811.69;;;28.00;44.47
8705;BME280;4389;41.932;25.904;2023-09-07T09:12:59;-16814.31;;;28.10;46.04
8705;BME280;4389;41.932;25.904;2023-09-07T09:15:26;-16818.53;;;28.26;46.50
8705;BME280;4389;41.932;25.904;2023-09-07T09:17:53;-16818.53;;;28.26;44.58
8705;BME280;4389;41.932;25.904;2023-09-07T09:20:21;-16819.06;;;28.28;42.89
8705;BME280;4389;41.932;25.904;2023-09-07T09:22:52;-16816.16;;;28.17;43.21
8705;BME280;4389;41.932;25.904;2023-09-07T09:25:19;-16811.94;;;28.01;43.24
8705;BME280;4389;41.932;25.904;2023-09-07T09:27:46;-16813.00;;;28.05;44.26
8705;BME280;4389;41.932;25.904;2023-09-07T09:30:13;-16816.16;;;28.17;42.70
8705;BME280;4389;41.932;25.904;2023-09-07T09:32:42;-16821.94;;;28.39;43.12
8705;BME280;4389;41.932;25.904;2023-09-07T09:35:09;-16825.75;;;28.53;42.17
8705;BME280;4389;41.932;25.904;2023-09-07T09:37:43;-16825.91;;;28.54;41.24
8705;BME280;4389;41.932;25.904;2023-09-07T09:40:14;-16828.13;;;28.62;41.66
8705;BME280;4389;41.932;25.904;2023-09-07T09:42:43;-16824.59;;;28.49;41.53
8705;BME280;4389;41.932;25.904;2023-09-07T09:45:11;-16823.41;;;28.44;41.31
8705;BME280;4389;41.932;25.904;2023-09-07T09:47:40;-16826.16;;;28.55;42.72
8705;BME280;4389;41.932;25.904;2023-09-07T09:50:08;-16825.09;;;28.51;41.70
8705;BME280;4389;41.932;25.904;2023-09-07T09:52:36;-16826.16;;;28.55;42.35
8705;BME280;4389;41.932;25.904;2023-09-07T09:55:07;-16829.59;;;28.68;41.38
8705;BME280;4389;41.932;25.904;2023-09-07T09:57:39;-16831.41;;;28.75;41.62
8705;BME280;4389;41.932;25.904;2023-09-07T10:00:07;-16829.31;;;28.67;41.10
8705;BME280;4389;41.932;25.904;2023-09-07T10:02:47;-16832.22;;;28.78;40.50
8705;BME280;4389;41.932;25.904;2023-09-07T10:05:15;-16837.22;;;28.97;40.23
8705;BME280;4389;41.932;25.904;2023-09-07T10:07:43;-16845.63;;;29.29;40.09
8705;BME280;4389;41.932;25.904;2023-09-07T10:10:12;-16842.59;;;29.17;40.31
8705;BME280;4389;41.932;25.904;2023-09-07T10:12:42;-16845.88;;;29.30;40.25
8705;BME280;4389;41.932;25.904;2023-09-07T10:15:24;-16841.41;;;29.13;40.35
8705;BME280;4389;41.932;25.904;2023-09-07T10:18:02;-16841.69;;;29.14;40.25
8705;BME280;4389;41.932;25.904;2023-09-07T10:20:35;-16850.63;;;29.48;39.93
8705;BME280;4389;41.932;25.904;2023-09-07T10:23:12;-16856.41;;;29.70;38.81
8705;BME280;4389;41.932;25.904;2023-09-07T10:25:40;-16852.19;;;29.54;39.64
8705;BME280;4389;41.932;25.904;2023-09-07T10:28:21;-16852.72;;;29.56;39.69
8705;BME280;4389;41.932;25.904;2023-09-07T10:30:58;-16848.00;;;29.38;40.24
8705;BME280;4389;41.932;25.904;2023-09-07T10:33:25;-16841.69;;;29.14;40.75
8705;BME280;4389;41.932;25.904;2023-09-07T10:35:52;-16833.53;;;28.83;40.90
8705;BME280;4389;41.932;25.904;2023-09-07T10:38:19;-16832.34;;;28.78;39.98
8705;BME280;4389;41.932;25.904;2023-09-07T10:40:47;-16836.41;;;28.94;39.53
8705;BME280;4389;41.932;25.904;2023-09-07T10:43:14;-16839.31;;;29.05;40.62
8705;BME280;4389;41.932;25.904;2023-09-07T10:45:45;-16848.13;;;29.38;40.61
8705;BME280;4389;41.932;25.904;2023-09-07T10:48:12;-16857.47;;;29.74;38.70
8705;BME280;4389;41.932;25.904;2023-09-07T10:50:43;-16859.16;;;29.80;37.76
8705;BME280;4389;41.932;25.904;2023-09-07T10:53:12;-16862.72;;;29.94;37.70
8705;BME280;4389;41.932;25.904;2023-09-07T10:55:39;-16862.06;;;29.91;37.93
8705;BME280;4389;41.932;25.904;2023-09-07T10:58:06;-16859.44;;;29.81;38.99
8705;BME280;4389;41.932;25.904;2023-09-07T11:00:34;-16854.81;;;29.64;38.22
8705;BME280;4389;41.932;25.904;2023-09-07T11:03:08;-16850.88;;;29.49;38.06
8705;BME280;4389;41.932;25.904;2023-09-07T11:05:37;-16848.25;;;29.39;37.13
8705;BME280;4389;41.932;25.904;2023-09-07T11:08:06;-16844.44;;;29.24;37.19
8705;BME280;4389;41.932;25.904;2023-09-07T11:10:34;-16850.22;;;29.46;36.48
8705;BME280;4389;41.932;25.904;2023-09-07T11:13:05;-16852.72;;;29.56;36.52
8705;BME280;4389;41.932;25.904;2023-09-07T11:15:33;-16860.09;;;29.84;36.28
8705;BME280;4389;41.932;25.904;2023-09-07T11:18:04;-16863.75;;;29.98;36.56
8705;BME280;4389;41.932;25.904;2023-09-07T11:20:35;-16859.28;;;29.81;36.24
8705;BME280;4389;41.932;25.904;2023-09-07T11:23:02;-16857.97;;;29.76;36.47
8705;BME280;4389;41.932;25.904;2023-09-07T11:25:34;-16854.03;;;29.61;36.30
8705;BME280;4389;41.932;25.904;2023-09-07T11:28:02;-16857.47;;;29.74;36.12
8705;BME280;4389;41.932;25.904;2023-09-07T11:30:30;-16868.50;;;30.16;35.44
8705;BME280;4389;41.932;25.904;2023-09-07T11:33:04;-16862.31;;;29.92;35.03
8705;BME280;4389;41.932;25.904;2023-09-07T11:35:34;-16861.13;;;29.88;35.53
8705;BME280;4389;41.932;25.904;2023-09-07T11:38:02;-16870.47;;;30.23;35.99
8705;BME280;4389;41.932;25.904;2023-09-07T11:40:30;-16877.41;;;30.49;35.48
8705;BME280;4389;41.932;25.904;2023-09-07T11:42:57;-16874.78;;;30.39;34.90
8705;BME280;4389;41.932;25.904;2023-09-07T11:45:24;-16877.16;;;30.48;35.63
8705;BME280;4389;41.932;25.904;2023-09-07T11:47:51;-16882.41;;;30.68;35.52
8705;BME280;4389;41.932;25.904;2023-09-07T11:50:18;-16881.63;;;30.65;35.28
8705;BME280;4389;41.932;25.904;2023-09-07T11:52:47;-16877.16;;;30.48;35.83
8705;BME280;4389;41.932;25.904;2023-09-07T11:55:14;-16877.16;;;30.48;35.27
8705;BME280;4389;41.932;25.904;2023-09-07T11:57:41;-16872.44;;;30.31;35.02
8705;BME280;4389;41.932;25.904;2023-09-07T12:00:09;-16873.22;;;30.33;35.29
8705;BME280;4389;41.932;25.904;2023-09-07T12:02:36;-16870.06;;;30.22;35.52
8705;BME280;4389;41.932;25.904;2023-09-07T12:05:04;-16863.22;;;29.96;35.76
8705;BME280;4389;41.932;25.904;2023-09-07T12:07:33;-16857.72;;;29.75;36.41
8705;BME280;4389;41.932;25.904;2023-09-07T12:10:01;-16857.31;;;29.73;35.79
8705;BME280;4389;41.932;25.904;2023-09-07T12:12:28;-16855.63;;;29.67;36.87
8705;BME280;4389;41.932;25.904;2023-09-07T12:14:55;-16855.63;;;29.67;36.75
8705;BME280;4389;41.932;25.904;2023-09-07T12:17:22;-16861.13;;;29.88;36.88
8705;BME280;4389;41.932;25.904;2023-09-07T12:19:49;-16872.16;;;30.29;35.87
8705;BME280;4389;41.932;25.904;2023-09-07T12:22:16;-16872.16;;;30.29;35.60
8705;BME280;4389;41.932;25.904;2023-09-07T12:24:44;-16868.09;;;30.14;35.90
8705;BME280;4389;41.932;25.904;2023-09-07T12:27:12;-16863.91;;;29.98;36.10
8705;BME280;4389;41.932;25.904;2023-09-07T12:29:39;-16866.78;;;30.09;36.05
8705;BME280;4389;41.932;25.904;2023-09-07T12:32:06;-16871.38;;;30.27;36.04
8705;BME280;4389;41.932;25.904;2023-09-07T12:34:32;-16869.16;;;30.18;36.50
8705;BME280;4389;41.932;25.904;2023-09-07T12:36:59;-16866.91;;;30.10;36.80
8705;BME280;4389;41.932;25.904;2023-09-07T12:39:26;-16863.75;;;29.98;35.63
8705;BME280;4389;41.932;25.904;2023-09-07T12:41:53;-16860.09;;;29.84;35.99
8705;BME280;4389;41.932;25.904;2023-09-07T12:44:21;-16855.09;;;29.65;35.19
8705;BME280;4389;41.932;25.904;2023-09-07T12:46:48;-16859.03;;;29.80;35.37
8705;BME280;4389;41.932;25.904;2023-09-07T12:49:15;-16867.44;;;30.12;33.75
8705;BME280;4389;41.932;25.904;2023-09-07T12:51:42;-16871.25;;;30.26;34.31
8705;BME280;4389;41.932;25.904;2023-09-07T12:54:09;-16874.28;;;30.38;34.75
8705;BME280;4389;41.932;25.904;2023-09-07T12:56:35;-16872.69;;;30.32;34.57
8705;BME280;4389;41.932;25.904;2023-09-07T12:59:02;-16874.53;;;30.38;33.96
8705;BME280;4389;41.932;25.904;2023-09-07T13:01:31;-16876.75;;;30.47;33.53
8705;BME280;4389;41.932;25.904;2023-09-07T13:03:58;-16879.25;;;30.56;33.24
8705;BME280;4389;41.932;25.904;2023-09-07T13:06:25;-16879.41;;;30.57;33.96